sensor_id;sensor_type;location;lat;lon;timestamp;P1;durP1;ratioP1;P2;durP2;ratioP2
47337;SDS011;33069;51.970;5.892;2023-01-29T00:01:37;37.97;;;23.33;;
47337;SDS011;33069;51.970;5.892;2023-01-29T00:04:02;31.65;;;22.55;;
47337;SDS011;33069;51.970;5.892;2023-01-29T00:06:28;32.50;;;23.35;;
47337;SDS011;33069;51.970;5.892;2023-01-29T00:08:54;37.42;;;25.35;;
47337;SDS011;33069;51.970;5.892;2023-01-29T00:11:19;34.70;;;25.20;;
47337;SDS011;33069;51.970;5.892;2023-01-29T00:13:45;33.28;;;25.90;;
47337;SDS011;33069;51.970;5.892;2023-01-29T00:16:11;36.03;;;24.27;;
47337;SDS011;33069;51.970;5.892;2023-01-29T00:18:38;31.58;;;22.63;;
47337;SDS011;33069;51.970;5.892;2023-01-29T00:22:06;35.53;;;24.33;;
47337;SDS011;33069;51.970;5.892;2023-01-29T00:24:32;35.67;;;24.33;;
47337;SDS011;33069;51.970;5.892;2023-01-29T00:26:57;35.22;;;25.00;;
47337;SDS011;33069;51.970;5.892;2023-01-29T00:29:23;36.60;;;25.67;;
47337;SDS011;33069;51.970;5.892;2023-01-29T00:31:49;33.35;;;24.80;;
47337;SDS011;33069;51.970;5.892;2023-01-29T00:34:14;33.90;;;24.27;;
47337;SDS011;33069;51.970;5.892;2023-01-29T00:36:40;33.90;;;22.98;;
47337;SDS011;33069;51.970;5.892;2023-01-29T00:39:08;37.28;;;25.67;;
47337;SDS011;33069;51.970;5.892;2023-01-29T00:41:37;39.17;;;24.95;;
47337;SDS011;33069;51.970;5.892;2023-01-29T00:47:06;34.85;;;23.60;;
47337;SDS011;33069;51.970;5.892;2023-01-29T00:49:50;35.33;;;24.65;;
47337;SDS011;33069;51.970;5.892;2023-01-29T00:52:16;36.22;;;23.95;;
47337;SDS011;33069;51.970;5.892;2023-01-29T00:54:54;35.60;;;22.02;;
47337;SDS011;33069;51.970;5.892;2023-01-29T00:57:22;36.40;;;24.38;;
47337;SDS011;33069;51.970;5.892;2023-01-29T00:59:49;37.88;;;23.77;;
47337;SDS011;33069;51.970;5.892;2023-01-29T01:02:22;37.35;;;25.23;;
47337;SDS011;33069;51.970;5.892;2023-01-29T01:05:07;38.55;;;24.52;;
47337;SDS011;33069;51.970;5.892;2023-01-29T01:07:38;38.17;;;25.58;;
47337;SDS011;33069;51.970;5.892;2023-01-29T01:10:05;36.30;;;23.65;;
47337;SDS011;33069;51.970;5.892;2023-01-29T01:13:05;35.30;;;23.42;;
47337;SDS011;33069;51.970;5.892;2023-01-29T01:15:36;37.35;;;24.05;;
47337;SDS011;33069;51.970;5.892;2023-01-29T01:18:03;36.85;;;24.95;;
47337;SDS011;33069;51.970;5.892;2023-01-29T01:20:31;39.78;;;25.35;;
47337;SDS011;33069;51.970;5.892;2023-01-29T01:22:57;36.58;;;25.25;;
47337;SDS011;33069;51.970;5.892;2023-01-29T01:25:24;38.90;;;25.52;;
47337;SDS011;33069;51.970;5.892;2023-01-29T01:27:51;38.25;;;25.42;;
47337;SDS011;33069;51.970;5.892;2023-01-29T01:30:17;37.55;;;25.88;;
47337;SDS011;33069;51.970;5.892;2023-01-29T01:32:43;39.38;;;26.75;;
47337;SDS011;33069;51.970;5.892;2023-01-29T01:35:09;41.20;;;27.67;;
47337;SDS011;33069;51.970;5.892;2023-01-29T01:37:35;40.42;;;28.35;;
47337;SDS011;33069;51.970;5.892;2023-01-29T01:40:02;40.22;;;24.27;;
47337;SDS011;33069;51.970;5.892;2023-01-29T01:42:39;36.35;;;23.90;;
47337;SDS011;33069;51.970;5.892;2023-01-29T01:45:06;40.38;;;25.80;;
47337;SDS011;33069;51.970;5.892;2023-01-29T01:47:45;39.03;;;24.95;;
47337;SDS011;33069;51.970;5.892;2023-01-29T01:50:16;38.00;;;24.27;;
47337;SDS011;33069;51.970;5.892;2023-01-29T01:52:48;39.97;;;26.70;;
47337;SDS011;33069;51.970;5.892;2023-01-29T01:55:20;39.25;;;25.95;;
47337;SDS011;33069;51.970;5.892;2023-01-29T01:57:49;41.03;;;26.40;;
47337;SDS011;33069;51.970;5.892;2023-01-29T02:00:19;44.60;;;25.90;;
47337;SDS011;33069;51.970;5.892;2023-01-29T02:02:46;38.10;;;25.98;;
47337;SDS011;33069;51.970;5.892;2023-01-29T02:05:32;38.67;;;25.17;;
47337;SDS011;33069;51.970;5.892;2023-01-29T02:08:18;38.58;;;25.45;;
47337;SDS011;33069;51.970;5.892;2023-01-29T02:11:09;40.72;;;25.90;;
47337;SDS011;33069;51.970;5.892;2023-01-29T02:13:35;46.35;;;26.25;;
47337;SDS011;33069;51.970;5.892;2023-01-29T02:16:01;41.28;;;25.25;;
47337;SDS011;33069;51.970;5.892;2023-01-29T02:18:26;40.95;;;25.58;;
47337;SDS011;33069;51.970;5.892;2023-01-29T02:21:35;37.30;;;25.70;;
47337;SDS011;33069;51.970;5.892;2023-01-29T02:26:52;43.85;;;29.02;;
47337;SDS011;33069;51.970;5.892;2023-01-29T02:32:30;40.30;;;27.35;;
47337;SDS011;33069;51.970;5.892;2023-01-29T02:35:34;42.58;;;26.63;;
47337;SDS011;33069;51.970;5.892;2023-01-29T02:38:23;41.22;;;26.77;;
47337;SDS011;33069;51.970;5.892;2023-01-29T02:41:22;39.25;;;25.48;;
47337;SDS011;33069;51.970;5.892;2023-01-29T02:44:11;42.70;;;26.30;;
47337;SDS011;33069;51.970;5.892;2023-01-29T02:46:56;44.90;;;26.48;;
47337;SDS011;33069;51.970;5.892;2023-01-29T02:49:31;44.08;;;26.83;;
47337;SDS011;33069;51.970;5.892;2023-01-29T02:52:18;41.78;;;26.85;;
47337;SDS011;33069;51.970;5.892;2023-01-29T02:54:57;41.97;;;27.15;;
47337;SDS011;33069;51.970;5.892;2023-01-29T02:57:33;48.80;;;27.67;;
47337;SDS011;33069;51.970;5.892;2023-01-29T03:05:49;43.67;;;26.85;;
47337;SDS011;33069;51.970;5.892;2023-01-29T03:08:20;43.28;;;28.10;;
47337;SDS011;33069;51.970;5.892;2023-01-29T03:11:10;44.88;;;27.55;;
47337;SDS011;33069;51.970;5.892;2023-01-29T03:19:03;42.40;;;25.05;;
47337;SDS011;33069;51.970;5.892;2023-01-29T03:21:39;37.70;;;25.98;;
47337;SDS011;33069;51.970;5.892;2023-01-29T03:24:16;45.17;;;28.17;;
47337;SDS011;33069;51.970;5.892;2023-01-29T03:27:06;44.53;;;26.80;;
47337;SDS011;33069;51.970;5.892;2023-01-29T03:29:53;45.35;;;28.40;;
47337;SDS011;33069;51.970;5.892;2023-01-29T03:32:40;46.88;;;28.27;;
47337;SDS011;33069;51.970;5.892;2023-01-29T03:35:08;45.78;;;27.38;;
47337;SDS011;33069;51.970;5.892;2023-01-29T03:37:39;42.83;;;26.92;;
47337;SDS011;33069;51.970;5.892;2023-01-29T03:40:08;46.22;;;27.50;;
47337;SDS011;33069;51.970;5.892;2023-01-29T03:45:18;48.80;;;26.67;;
47337;SDS011;33069;51.970;5.892;2023-01-29T03:56:03;39.45;;;25.52;;
47337;SDS011;33069;51.970;5.892;2023-01-29T04:06:31;44.40;;;27.45;;
47337;SDS011;33069;51.970;5.892;2023-01-29T04:09:21;46.30;;;29.60;;
47337;SDS011;33069;51.970;5.892;2023-01-29T04:12:09;42.53;;;27.05;;
47337;SDS011;33069;51.970;5.892;2023-01-29T04:15:01;44.67;;;29.13;;
47337;SDS011;33069;51.970;5.892;2023-01-29T04:17:38;48.58;;;28.13;;
47337;SDS011;33069;51.970;5.892;2023-01-29T04:20:07;48.28;;;28.15;;
47337;SDS011;33069;51.970;5.892;2023-01-29T04:22:34;46.40;;;27.73;;
47337;SDS011;33069;51.970;5.892;2023-01-29T04:25:06;47.17;;;27.83;;
47337;SDS011;33069;51.970;5.892;2023-01-29T04:33:21;45.63;;;27.83;;
47337;SDS011;33069;51.970;5.892;2023-01-29T04:35:57;41.67;;;26.10;;
47337;SDS011;33069;51.970;5.892;2023-01-29T04:47:49;47.17;;;29.98;;
47337;SDS011;33069;51.970;5.892;2023-01-29T04:52:56;50.45;;;29.92;;
47337;SDS011;33069;51.970;5.892;2023-01-29T04:55:37;48.78;;;29.88;;
47337;SDS011;33069;51.970;5.892;2023-01-29T04:58:26;47.40;;;29.80;;
47337;SDS011;33069;51.970;5.892;2023-01-29T05:00:57;49.72;;;29.00;;
47337;SDS011;33069;51.970;5.892;2023-01-29T05:03:25;52.85;;;30.92;;
47337;SDS011;33069;51.970;5.892;2023-01-29T05:05:53;43.67;;;26.67;;
47337;SDS011;33069;51.970;5.892;2023-01-29T05:08:21;51.63;;;31.88;;
47337;SDS011;33069;51.970;5.892;2023-01-29T05:10:49;53.22;;;31.02;;
47337;SDS011;33069;51.970;5.892;2023-01-29T05:13:17;46.15;;;28.60;;
47337;SDS011;33069;51.970;5.892;2023-01-29T05:15:49;44.28;;;28.65;;
47337;SDS011;33069;51.970;5.892;2023-01-29T05:18:34;49.78;;;30.75;;
47337;SDS011;33069;51.970;5.892;2023-01-29T05:21:01;47.38;;;28.52;;
47337;SDS011;33069;51.970;5.892;2023-01-29T05:23:30;49.17;;;30.05;;
47337;SDS011;33069;51.970;5.892;2023-01-29T05:25:56;50.25;;;29.35;;
47337;SDS011;33069;51.970;5.892;2023-01-29T05:28:22;49.67;;;30.45;;
47337;SDS011;33069;51.970;5.892;2023-01-29T05:30:54;52.35;;;30.98;;
47337;SDS011;33069;51.970;5.892;2023-01-29T05:35:48;51.47;;;29.60;;
47337;SDS011;33069;51.970;5.892;2023-01-29T05:38:15;51.78;;;30.85;;
47337;SDS011;33069;51.970;5.892;2023-01-29T05:40:42;46.75;;;28.33;;
47337;SDS011;33069;51.970;5.892;2023-01-29T05:43:12;44.67;;;28.45;;
47337;SDS011;33069;51.970;5.892;2023-01-29T05:45:42;48.92;;;29.77;;
47337;SDS011;33069;51.970;5.892;2023-01-29T05:48:08;48.40;;;30.48;;
47337;SDS011;33069;51.970;5.892;2023-01-29T05:50:34;46.88;;;30.33;;
47337;SDS011;33069;51.970;5.892;2023-01-29T05:53:19;50.72;;;31.25;;
47337;SDS011;33069;51.970;5.892;2023-01-29T05:55:45;57.00;;;33.05;;
47337;SDS011;33069;51.970;5.892;2023-01-29T05:58:11;55.60;;;30.38;;
47337;SDS011;33069;51.970;5.892;2023-01-29T06:00:37;49.25;;;29.48;;
47337;SDS011;33069;51.970;5.892;2023-01-29T06:03:04;52.90;;;31.83;;
47337;SDS011;33069;51.970;5.892;2023-01-29T06:05:29;47.60;;;29.95;;
47337;SDS011;33069;51.970;5.892;2023-01-29T06:07:55;51.80;;;30.73;;
47337;SDS011;33069;51.970;5.892;2023-01-29T06:10:21;53.25;;;32.00;;
47337;SDS011;33069;51.970;5.892;2023-01-29T06:12:47;55.47;;;32.10;;
47337;SDS011;33069;51.970;5.892;2023-01-29T06:15:13;47.55;;;30.50;;
47337;SDS011;33069;51.970;5.892;2023-01-29T06:17:43;53.92;;;34.53;;
47337;SDS011;33069;51.970;5.892;2023-01-29T06:20:09;51.83;;;31.92;;
47337;SDS011;33069;51.970;5.892;2023-01-29T06:22:35;54.38;;;35.72;;
47337;SDS011;33069;51.970;5.892;2023-01-29T06:25:04;52.45;;;33.15;;
47337;SDS011;33069;51.970;5.892;2023-01-29T06:27:31;50.25;;;30.80;;
47337;SDS011;33069;51.970;5.892;2023-01-29T06:29:56;51.72;;;32.78;;
47337;SDS011;33069;51.970;5.892;2023-01-29T06:32:22;49.33;;;30.63;;
47337;SDS011;33069;51.970;5.892;2023-01-29T06:34:48;50.25;;;32.58;;
47337;SDS011;33069;51.970;5.892;2023-01-29T06:37:13;57.85;;;35.00;;
47337;SDS011;33069;51.970;5.892;2023-01-29T06:39:39;50.00;;;31.67;;
47337;SDS011;33069;51.970;5.892;2023-01-29T06:42:04;49.13;;;31.73;;
47337;SDS011;33069;51.970;5.892;2023-01-29T06:44:30;49.80;;;32.95;;
47337;SDS011;33069;51.970;5.892;2023-01-29T06:46:56;49.47;;;31.13;;
47337;SDS011;33069;51.970;5.892;2023-01-29T06:49:21;48.10;;;31.45;;
47337;SDS011;33069;51.970;5.892;2023-01-29T06:51:47;51.00;;;32.33;;
47337;SDS011;33069;51.970;5.892;2023-01-29T06:54:13;49.15;;;31.50;;
47337;SDS011;33069;51.970;5.892;2023-01-29T06:56:48;55.63;;;33.15;;
47337;SDS011;33069;51.970;5.892;2023-01-29T06:59:13;52.15;;;31.02;;
47337;SDS011;33069;51.970;5.892;2023-01-29T07:01:39;50.60;;;30.92;;
47337;SDS011;33069;51.970;5.892;2023-01-29T07:04:08;50.85;;;30.85;;
47337;SDS011;33069;51.970;5.892;2023-01-29T07:06:34;47.80;;;30.73;;
47337;SDS011;33069;51.970;5.892;2023-01-29T07:09:01;50.30;;;33.00;;
47337;SDS011;33069;51.970;5.892;2023-01-29T07:11:30;50.13;;;31.23;;
47337;SDS011;33069;51.970;5.892;2023-01-29T07:13:56;48.22;;;32.33;;
47337;SDS011;33069;51.970;5.892;2023-01-29T07:16:21;49.08;;;31.00;;
47337;SDS011;33069;51.970;5.892;2023-01-29T07:18:48;51.25;;;30.65;;
47337;SDS011;33069;51.970;5.892;2023-01-29T07:21:14;50.92;;;32.15;;
47337;SDS011;33069;51.970;5.892;2023-01-29T07:23:40;51.90;;;33.45;;
47337;SDS011;33069;51.970;5.892;2023-01-29T07:26:05;49.90;;;33.05;;
47337;SDS011;33069;51.970;5.892;2023-01-29T07:28:35;54.40;;;32.40;;
47337;SDS011;33069;51.970;5.892;2023-01-29T07:31:02;47.00;;;30.63;;
47337;SDS011;33069;51.970;5.892;2023-01-29T07:33:28;52.65;;;32.15;;
47337;SDS011;33069;51.970;5.892;2023-01-29T07:35:54;53.60;;;32.15;;
47337;SDS011;33069;51.970;5.892;2023-01-29T07:38:20;51.70;;;30.88;;
47337;SDS011;33069;51.970;5.892;2023-01-29T07:40:45;51.15;;;32.83;;
47337;SDS011;33069;51.970;5.892;2023-01-29T07:43:11;52.42;;;30.90;;
47337;SDS011;33069;51.970;5.892;2023-01-29T07:45:38;46.15;;;29.58;;
47337;SDS011;33069;51.970;5.892;2023-01-29T07:48:04;48.70;;;31.23;;
47337;SDS011;33069;51.970;5.892;2023-01-29T07:50:32;52.15;;;34.53;;
47337;SDS011;33069;51.970;5.892;2023-01-29T07:52:59;50.30;;;31.55;;
47337;SDS011;33069;51.970;5.892;2023-01-29T07:55:25;55.55;;;34.33;;
47337;SDS011;33069;51.970;5.892;2023-01-29T07:57:55;50.65;;;32.28;;
47337;SDS011;33069;51.970;5.892;2023-01-29T08:00:26;52.70;;;33.25;;
47337;SDS011;33069;51.970;5.892;2023-01-29T08:02:52;56.67;;;33.47;;
47337;SDS011;33069;51.970;5.892;2023-01-29T08:05:18;56.10;;;34.55;;
47337;SDS011;33069;51.970;5.892;2023-01-29T08:07:43;50.90;;;34.47;;
47337;SDS011;33069;51.970;5.892;2023-01-29T08:10:09;55.92;;;33.45;;
47337;SDS011;33069;51.970;5.892;2023-01-29T08:12:35;55.28;;;35.30;;
47337;SDS011;33069;51.970;5.892;2023-01-29T08:15:01;53.08;;;35.28;;
47337;SDS011;33069;51.970;5.892;2023-01-29T08:17:27;51.47;;;34.30;;
47337;SDS011;33069;51.970;5.892;2023-01-29T08:19:53;46.92;;;31.98;;
47337;SDS011;33069;51.970;5.892;2023-01-29T08:22:18;51.35;;;33.95;;
47337;SDS011;33069;51.970;5.892;2023-01-29T08:24:44;52.42;;;34.80;;
47337;SDS011;33069;51.970;5.892;2023-01-29T08:27:10;52.30;;;34.55;;
47337;SDS011;33069;51.970;5.892;2023-01-29T08:29:35;50.30;;;34.78;;
47337;SDS011;33069;51.970;5.892;2023-01-29T08:32:01;52.10;;;34.40;;
47337;SDS011;33069;51.970;5.892;2023-01-29T08:34:27;46.15;;;32.42;;
47337;SDS011;33069;51.970;5.892;2023-01-29T08:36:53;51.55;;;34.38;;
47337;SDS011;33069;51.970;5.892;2023-01-29T08:39:18;47.63;;;32.75;;
47337;SDS011;33069;51.970;5.892;2023-01-29T08:41:44;47.28;;;31.20;;
47337;SDS011;33069;51.970;5.892;2023-01-29T08:44:10;47.33;;;33.10;;
47337;SDS011;33069;51.970;5.892;2023-01-29T08:46:36;49.10;;;31.90;;
47337;SDS011;33069;51.970;5.892;2023-01-29T08:49:02;46.75;;;33.88;;
47337;SDS011;33069;51.970;5.892;2023-01-29T08:51:28;43.80;;;31.67;;
47337;SDS011;33069;51.970;5.892;2023-01-29T08:53:53;46.13;;;32.83;;
47337;SDS011;33069;51.970;5.892;2023-01-29T08:56:19;45.38;;;32.53;;
47337;SDS011;33069;51.970;5.892;2023-01-29T08:58:45;43.65;;;30.23;;
47337;SDS011;33069;51.970;5.892;2023-01-29T09:01:12;45.50;;;32.05;;
47337;SDS011;33069;51.970;5.892;2023-01-29T09:03:38;51.08;;;34.22;;
47337;SDS011;33069;51.970;5.892;2023-01-29T09:06:09;42.45;;;29.52;;
47337;SDS011;33069;51.970;5.892;2023-01-29T09:08:35;45.65;;;32.70;;
47337;SDS011;33069;51.970;5.892;2023-01-29T09:11:02;47.13;;;32.28;;
47337;SDS011;33069;51.970;5.892;2023-01-29T09:13:28;47.22;;;30.25;;
47337;SDS011;33069;51.970;5.892;2023-01-29T09:15:57;46.15;;;34.63;;
47337;SDS011;33069;51.970;5.892;2023-01-29T09:18:24;44.42;;;32.10;;
47337;SDS011;33069;51.970;5.892;2023-01-29T09:20:50;38.67;;;29.45;;
47337;SDS011;33069;51.970;5.892;2023-01-29T09:23:17;47.63;;;34.17;;
47337;SDS011;33069;51.970;5.892;2023-01-29T09:25:43;44.20;;;32.10;;
47337;SDS011;33069;51.970;5.892;2023-01-29T09:28:08;46.05;;;34.08;;
47337;SDS011;33069;51.970;5.892;2023-01-29T09:30:34;46.80;;;31.42;;
47337;SDS011;33069;51.970;5.892;2023-01-29T09:33:05;46.53;;;33.40;;
47337;SDS011;33069;51.970;5.892;2023-01-29T09:35:32;33.63;;;26.83;;
47337;SDS011;33069;51.970;5.892;2023-01-29T09:37:58;47.38;;;33.95;;
47337;SDS011;33069;51.970;5.892;2023-01-29T09:43:06;46.85;;;32.45;;
47337;SDS011;33069;51.970;5.892;2023-01-29T09:45:50;43.83;;;33.00;;
47337;SDS011;33069;51.970;5.892;2023-01-29T09:48:26;39.13;;;29.25;;
47337;SDS011;33069;51.970;5.892;2023-01-29T09:50:56;43.28;;;31.55;;
47337;SDS011;33069;51.970;5.892;2023-01-29T09:56:03;38.92;;;28.88;;
47337;SDS011;33069;51.970;5.892;2023-01-29T09:58:39;39.65;;;30.10;;
47337;SDS011;33069;51.970;5.892;2023-01-29T10:03:42;41.90;;;30.77;;
47337;SDS011;33069;51.970;5.892;2023-01-29T10:08:58;39.92;;;31.10;;
47337;SDS011;33069;51.970;5.892;2023-01-29T10:14:13;38.38;;;30.10;;
47337;SDS011;33069;51.970;5.892;2023-01-29T10:22:48;31.58;;;23.83;;
47337;SDS011;33069;51.970;5.892;2023-01-29T10:25:17;36.50;;;27.85;;
47337;SDS011;33069;51.970;5.892;2023-01-29T10:27:52;39.03;;;29.02;;
47337;SDS011;33069;51.970;5.892;2023-01-29T10:33:02;41.58;;;31.75;;
47337;SDS011;33069;51.970;5.892;2023-01-29T10:35:32;32.22;;;28.17;;
47337;SDS011;33069;51.970;5.892;2023-01-29T10:38:10;39.33;;;29.40;;
47337;SDS011;33069;51.970;5.892;2023-01-29T10:43:38;37.40;;;29.48;;
47337;SDS011;33069;51.970;5.892;2023-01-29T10:59:51;35.90;;;27.88;;
47337;SDS011;33069;51.970;5.892;2023-01-29T11:02:42;39.50;;;30.88;;
47337;SDS011;33069;51.970;5.892;2023-01-29T11:05:26;40.33;;;31.05;;
47337;SDS011;33069;51.970;5.892;2023-01-29T11:08:05;34.92;;;29.40;;
47337;SDS011;33069;51.970;5.892;2023-01-29T11:10:37;36.17;;;30.35;;
47337;SDS011;33069;51.970;5.892;2023-01-29T11:13:10;38.00;;;31.08;;
47337;SDS011;33069;51.970;5.892;2023-01-29T11:15:39;39.20;;;31.00;;
47337;SDS011;33069;51.970;5.892;2023-01-29T11:20:37;43.03;;;32.35;;
47337;SDS011;33069;51.970;5.892;2023-01-29T11:23:04;40.63;;;31.27;;
47337;SDS011;33069;51.970;5.892;2023-01-29T11:25:30;42.83;;;30.73;;
47337;SDS011;33069;51.970;5.892;2023-01-29T11:28:00;34.80;;;29.83;;
47337;SDS011;33069;51.970;5.892;2023-01-29T11:30:31;38.88;;;30.85;;
47337;SDS011;33069;51.970;5.892;2023-01-29T11:35:47;35.47;;;29.08;;
47337;SDS011;33069;51.970;5.892;2023-01-29T11:38:24;38.92;;;31.55;;
47337;SDS011;33069;51.970;5.892;2023-01-29T11:40:51;41.03;;;32.95;;
47337;SDS011;33069;51.970;5.892;2023-01-29T11:43:28;36.00;;;29.77;;
47337;SDS011;33069;51.970;5.892;2023-01-29T11:46:05;33.67;;;28.88;;
47337;SDS011;33069;51.970;5.892;2023-01-29T11:48:43;37.47;;;29.98;;
47337;SDS011;33069;51.970;5.892;2023-01-29T11:51:27;35.83;;;29.98;;
47337;SDS011;33069;51.970;5.892;2023-01-29T11:53:54;35.22;;;29.25;;
47337;SDS011;33069;51.970;5.892;2023-01-29T11:56:28;36.35;;;31.17;;
47337;SDS011;33069;51.970;5.892;2023-01-29T11:59:24;43.97;;;29.92;;
47337;SDS011;33069;51.970;5.892;2023-01-29T12:02:21;32.10;;;28.08;;
47337;SDS011;33069;51.970;5.892;2023-01-29T12:04:48;40.45;;;31.45;;
47337;SDS011;33069;51.970;5.892;2023-01-29T12:07:15;39.50;;;32.00;;
47337;SDS011;33069;51.970;5.892;2023-01-29T12:09:51;41.85;;;30.17;;
47337;SDS011;33069;51.970;5.892;2023-01-29T12:12:28;27.98;;;22.13;;
47337;SDS011;33069;51.970;5.892;2023-01-29T12:15:13;36.03;;;30.10;;
47337;SDS011;33069;51.970;5.892;2023-01-29T12:17:57;40.05;;;32.03;;
47337;SDS011;33069;51.970;5.892;2023-01-29T12:20:50;30.98;;;27.15;;
47337;SDS011;33069;51.970;5.892;2023-01-29T12:26:21;39.72;;;30.40;;
47337;SDS011;33069;51.970;5.892;2023-01-29T12:31:50;42.83;;;31.45;;
47337;SDS011;33069;51.970;5.892;2023-01-29T12:34:43;35.83;;;28.00;;
47337;SDS011;33069;51.970;5.892;2023-01-29T12:40:10;41.03;;;32.05;;
47337;SDS011;33069;51.970;5.892;2023-01-29T12:42:38;42.63;;;34.80;;
47337;SDS011;33069;51.970;5.892;2023-01-29T12:45:07;44.08;;;35.10;;
47337;SDS011;33069;51.970;5.892;2023-01-29T12:47:41;43.40;;;33.63;;
47337;SDS011;33069;51.970;5.892;2023-01-29T12:52:46;42.70;;;33.15;;
47337;SDS011;33069;51.970;5.892;2023-01-29T12:55:17;44.30;;;32.05;;
47337;SDS011;33069;51.970;5.892;2023-01-29T12:57:57;41.63;;;31.10;;
47337;SDS011;33069;51.970;5.892;2023-01-29T13:00:36;43.47;;;32.90;;
47337;SDS011;33069;51.970;5.892;2023-01-29T13:05:50;43.25;;;34.95;;
47337;SDS011;33069;51.970;5.892;2023-01-29T13:11:03;43.63;;;34.08;;
47337;SDS011;33069;51.970;5.892;2023-01-29T13:13:44;47.92;;;37.08;;
47337;SDS011;33069;51.970;5.892;2023-01-29T13:16:18;46.22;;;35.13;;
47337;SDS011;33069;51.970;5.892;2023-01-29T13:21:26;45.55;;;35.08;;
47337;SDS011;33069;51.970;5.892;2023-01-29T13:24:02;47.67;;;34.20;;
47337;SDS011;33069;51.970;5.892;2023-01-29T13:26:33;51.33;;;34.03;;
47337;SDS011;33069;51.970;5.892;2023-01-29T13:29:00;47.53;;;34.83;;
47337;SDS011;33069;51.970;5.892;2023-01-29T13:36:44;45.67;;;31.60;;
47337;SDS011;33069;51.970;5.892;2023-01-29T13:41:52;50.60;;;35.28;;
47337;SDS011;33069;51.970;5.892;2023-01-29T13:44:21;49.63;;;34.40;;
47337;SDS011;33069;51.970;5.892;2023-01-29T13:47:00;45.97;;;35.13;;
47337;SDS011;33069;51.970;5.892;2023-01-29T13:49:34;53.72;;;34.78;;
47337;SDS011;33069;51.970;5.892;2023-01-29T13:52:31;54.65;;;37.67;;
47337;SDS011;33069;51.970;5.892;2023-01-29T13:55:04;48.47;;;33.10;;
47337;SDS011;33069;51.970;5.892;2023-01-29T13:57:46;46.83;;;33.25;;
47337;SDS011;33069;51.970;5.892;2023-01-29T14:05:37;50.25;;;35.60;;
47337;SDS011;33069;51.970;5.892;2023-01-29T14:10:41;50.70;;;36.10;;
47337;SDS011;33069;51.970;5.892;2023-01-29T14:15:44;46.17;;;35.00;;
47337;SDS011;33069;51.970;5.892;2023-01-29T14:23:23;50.90;;;36.38;;
47337;SDS011;33069;51.970;5.892;2023-01-29T14:25:55;50.28;;;36.25;;
47337;SDS011;33069;51.970;5.892;2023-01-29T14:28:23;50.78;;;36.22;;
47337;SDS011;33069;51.970;5.892;2023-01-29T14:30:53;60.05;;;37.45;;
47337;SDS011;33069;51.970;5.892;2023-01-29T14:33:35;52.20;;;37.38;;
47337;SDS011;33069;51.970;5.892;2023-01-29T14:36:10;49.15;;;37.63;;
47337;SDS011;33069;51.970;5.892;2023-01-29T14:38:39;51.38;;;36.08;;
47337;SDS011;33069;51.970;5.892;2023-01-29T14:43:44;50.45;;;34.05;;
47337;SDS011;33069;51.970;5.892;2023-01-29T14:46:52;48.95;;;30.75;;
47337;SDS011;33069;51.970;5.892;2023-01-29T14:48:59;49.20;;;33.50;;
47337;SDS011;33069;51.970;5.892;2023-01-29T14:51:25;52.15;;;32.70;;
47337;SDS011;33069;51.970;5.892;2023-01-29T14:54:14;48.65;;;33.78;;
47337;SDS011;33069;51.970;5.892;2023-01-29T14:57:20;50.97;;;32.17;;
47337;SDS011;33069;51.970;5.892;2023-01-29T15:02:42;48.63;;;31.35;;
47337;SDS011;33069;51.970;5.892;2023-01-29T15:05:18;55.05;;;33.30;;
47337;SDS011;33069;51.970;5.892;2023-01-29T15:07:47;51.75;;;32.63;;
47337;SDS011;33069;51.970;5.892;2023-01-29T15:10:27;48.85;;;32.28;;
47337;SDS011;33069;51.970;5.892;2023-01-29T15:13:36;49.88;;;32.53;;
47337;SDS011;33069;51.970;5.892;2023-01-29T15:16:41;50.15;;;31.67;;
47337;SDS011;33069;51.970;5.892;2023-01-29T15:19:42;50.53;;;33.28;;
47337;SDS011;33069;51.970;5.892;2023-01-29T15:22:10;47.25;;;31.27;;
47337;SDS011;33069;51.970;5.892;2023-01-29T15:24:38;51.25;;;33.13;;
47337;SDS011;33069;51.970;5.892;2023-01-29T15:27:05;52.60;;;33.05;;
47337;SDS011;33069;51.970;5.892;2023-01-29T15:29:36;50.60;;;35.53;;
47337;SDS011;33069;51.970;5.892;2023-01-29T15:32:03;52.63;;;33.60;;
47337;SDS011;33069;51.970;5.892;2023-01-29T15:34:29;56.75;;;32.00;;
47337;SDS011;33069;51.970;5.892;2023-01-29T15:36:55;47.67;;;26.52;;
47337;SDS011;33069;51.970;5.892;2023-01-29T15:39:22;47.25;;;31.02;;
47337;SDS011;33069;51.970;5.892;2023-01-29T15:41:49;54.05;;;34.60;;
47337;SDS011;33069;51.970;5.892;2023-01-29T15:44:28;52.97;;;34.35;;
47337;SDS011;33069;51.970;5.892;2023-01-29T15:46:58;49.17;;;32.00;;
47337;SDS011;33069;51.970;5.892;2023-01-29T15:49:32;49.35;;;28.95;;
47337;SDS011;33069;51.970;5.892;2023-01-29T15:52:03;55.90;;;35.65;;
47337;SDS011;33069;51.970;5.892;2023-01-29T15:54:33;53.30;;;34.67;;
47337;SDS011;33069;51.970;5.892;2023-01-29T15:57:00;53.95;;;36.05;;
47337;SDS011;33069;51.970;5.892;2023-01-29T15:59:34;55.90;;;34.03;;
47337;SDS011;33069;51.970;5.892;2023-01-29T16:02:16;56.03;;;33.08;;
47337;SDS011;33069;51.970;5.892;2023-01-29T16:04:45;53.40;;;34.97;;
47337;SDS011;33069;51.970;5.892;2023-01-29T16:07:11;49.78;;;33.60;;
47337;SDS011;33069;51.970;5.892;2023-01-29T16:09:39;50.13;;;33.38;;
47337;SDS011;33069;51.970;5.892;2023-01-29T16:12:06;50.85;;;31.98;;
47337;SDS011;33069;51.970;5.892;2023-01-29T16:14:37;48.85;;;32.17;;
47337;SDS011;33069;51.970;5.892;2023-01-29T16:17:18;52.90;;;33.03;;
47337;SDS011;33069;51.970;5.892;2023-01-29T16:20:00;54.08;;;33.95;;
47337;SDS011;33069;51.970;5.892;2023-01-29T16:22:29;53.08;;;35.15;;
47337;SDS011;33069;51.970;5.892;2023-01-29T16:25:02;54.95;;;34.67;;
47337;SDS011;33069;51.970;5.892;2023-01-29T16:29:58;51.63;;;30.98;;
47337;SDS011;33069;51.970;5.892;2023-01-29T16:32:26;54.63;;;31.98;;
47337;SDS011;33069;51.970;5.892;2023-01-29T16:34:55;55.47;;;33.00;;
47337;SDS011;33069;51.970;5.892;2023-01-29T16:37:30;47.88;;;31.63;;
47337;SDS011;33069;51.970;5.892;2023-01-29T16:39:59;51.22;;;33.30;;
47337;SDS011;33069;51.970;5.892;2023-01-29T16:42:39;52.47;;;32.47;;
47337;SDS011;33069;51.970;5.892;2023-01-29T16:45:25;50.42;;;32.88;;
47337;SDS011;33069;51.970;5.892;2023-01-29T16:47:59;49.72;;;32.33;;
47337;SDS011;33069;51.970;5.892;2023-01-29T16:50:31;57.63;;;31.90;;
47337;SDS011;33069;51.970;5.892;2023-01-29T16:53:01;53.92;;;34.35;;
47337;SDS011;33069;51.970;5.892;2023-01-29T16:55:40;51.08;;;32.65;;
47337;SDS011;33069;51.970;5.892;2023-01-29T16:58:20;51.88;;;32.83;;
47337;SDS011;33069;51.970;5.892;2023-01-29T17:00:49;53.75;;;30.95;;
47337;SDS011;33069;51.970;5.892;2023-01-29T17:03:19;55.17;;;34.88;;
47337;SDS011;33069;51.970;5.892;2023-01-29T17:05:45;46.83;;;28.38;;
47337;SDS011;33069;51.970;5.892;2023-01-29T17:08:22;47.38;;;31.42;;
47337;SDS011;33069;51.970;5.892;2023-01-29T17:11:07;49.05;;;29.10;;
47337;SDS011;33069;51.970;5.892;2023-01-29T17:13:37;52.75;;;31.60;;
47337;SDS011;33069;51.970;5.892;2023-01-29T17:16:13;51.03;;;32.17;;
47337;SDS011;33069;51.970;5.892;2023-01-29T17:18:45;51.92;;;30.50;;
47337;SDS011;33069;51.970;5.892;2023-01-29T17:21:10;53.17;;;32.92;;
47337;SDS011;33069;51.970;5.892;2023-01-29T17:23:36;52.97;;;33.85;;